sensor_id;sensor_type;location;lat;lon;timestamp;pressure;altitude;pressure_sealevel;temperature;humidity
75414;BME280;64758;52.122;5.404;2023-04-25T00:00:08;101324.75;;;5.58;100.00
75414;BME280;64758;52.122;5.404;2023-04-25T00:02:35;101325.31;;;5.52;100.00
75414;BME280;64758;52.122;5.404;2023-04-25T00:05:02;101325.44;;;5.51;100.00
75414;BME280;64758;52.122;5.404;2023-04-25T00:07:30;101323.94;;;5.48;100.00
75414;BME280;64758;52.122;5.404;2023-04-25T00:09:58;101328.34;;;5.48;100.00
75414;BME280;64758;52.122;5.404;2023-04-25T00:12:24;101335.44;;;5.47;100.00
75414;BME280;64758;52.122;5.404;2023-04-25T00:14:51;101341.69;;;5.46;100.00
75414;BME280;64758;52.122;5.404;2023-04-25T00:17:17;101337.22;;;5.47;100.00
75414;BME280;64758;52.122;5.404;2023-04-25T00:19:45;101339.44;;;5.51;100.00
75414;BME280;64758;52.122;5.404;2023-04-25T00:22:12;101346.22;;;5.54;100.00
75414;BME280;64758;52.122;5.404;2023-04-25T00:24:39;101328.63;;;5.54;100.00
75414;BME280;64758;52.122;5.404;2023-04-25T00:27:06;101344.69;;;5.61;100.00
75414;BME280;64758;52.122;5.404;2023-04-25T00:29:33;101341.50;;;5.57;100.00
75414;BME280;64758;52.122;5.404;2023-04-25T00:31:59;101342.63;;;5.64;100.00
75414;BME280;64758;52.122;5.404;2023-04-25T00:34:26;101342.03;;;5.61;100.00
75414;BME280;64758;52.122;5.404;2023-04-25T00:36:53;101346.22;;;5.63;100.00
75414;BME280;64758;52.122;5.404;2023-04-25T00:39:19;101338.16;;;5.65;100.00
75414;BME280;64758;52.122;5.404;2023-04-25T00:41:46;101335.69;;;5.63;100.00
75414;BME280;64758;52.122;5.404;2023-04-25T00:44:14;101355.50;;;5.67;100.00
75414;BME280;64758;52.122;5.404;2023-04-25T00:46:43;101353.69;;;5.68;100.00
75414;BME280;64758;52.122;5.404;2023-04-25T00:49:10;101343.88;;;5.60;100.00
75414;BME280;64758;52.122;5.404;2023-04-25T00:51:42;101353.16;;;5.64;100.00
75414;BME280;64758;52.122;5.404;2023-04-25T00:54:14;101351.19;;;5.66;100.00
75414;BME280;64758;52.122;5.404;2023-04-25T00:56:40;101351.50;;;5.63;100.00
75414;BME280;64758;52.122;5.404;2023-04-25T00:59:09;101341.91;;;5.62;100.00
75414;BME280;64758;52.122;5.404;2023-04-25T01:01:36;101337.34;;;5.55;100.00
75414;BME280;64758;52.122;5.404;2023-04-25T01:04:04;101342.91;;;5.61;100.00
75414;BME280;64758;52.122;5.404;2023-04-25T01:06:31;101339.56;;;5.59;100.00
75414;BME280;64758;52.122;5.404;2023-04-25T01:08:58;101335.69;;;5.54;100.00
75414;BME280;64758;52.122;5.404;2023-04-25T01:11:25;101340.94;;;5.54;100.00
75414;BME280;64758;52.122;5.404;2023-04-25T01:13:52;101353.59;;;5.50;100.00
75414;BME280;64758;52.122;5.404;2023-04-25T01:16:18;101341.81;;;5.45;100.00
75414;BME280;64758;52.122;5.404;2023-04-25T01:18:45;101355.81;;;5.45;100.00
75414;BME280;64758;52.122;5.404;2023-04-25T01:21:13;101349.44;;;5.38;100.00
75414;BME280;64758;52.122;5.404;2023-04-25T01:23:40;101355.69;;;5.37;100.00
75414;BME280;64758;52.122;5.404;2023-04-25T01:26:09;101354.59;;;5.30;100.00
75414;BME280;64758;52.122;5.404;2023-04-25T01:28:36;101357.50;;;5.27;100.00
75414;BME280;64758;52.122;5.404;2023-04-25T01:31:04;101369.81;;;5.27;100.00
75414;BME280;64758;52.122;5.404;2023-04-25T01:33:32;101366.66;;;5.23;100.00
75414;BME280;64758;52.122;5.404;2023-04-25T01:35:58;101369.84;;;5.17;100.00
75414;BME280;64758;52.122;5.404;2023-04-25T01:38:25;101368.44;;;5.13;100.00
75414;BME280;64758;52.122;5.404;2023-04-25T01:40:53;101377.59;;;5.09;100.00
75414;BME280;64758;52.122;5.404;2023-04-25T01:43:20;101374.53;;;5.04;100.00
75414;BME280;64758;52.122;5.404;2023-04-25T01:45:48;101367.78;;;5.02;100.00
75414;BME280;64758;52.122;5.404;2023-04-25T01:48:15;101374.53;;;5.04;100.00
75414;BME280;64758;52.122;5.404;2023-04-25T01:50:43;101381.06;;;5.00;100.00
75414;BME280;64758;52.122;5.404;2023-04-25T01:53:12;101381.19;;;4.99;100.00
75414;BME280;64758;52.122;5.404;2023-04-25T01:55:39;101375.53;;;4.94;100.00
75414;BME280;64758;52.122;5.404;2023-04-25T01:58:05;101377.72;;;4.89;100.00
75414;BME280;64758;52.122;5.404;2023-04-25T02:00:39;101385.63;;;4.89;100.00
75414;BME280;64758;52.122;5.404;2023-04-25T02:03:07;101381.03;;;4.82;100.00
75414;BME280;64758;52.122;5.404;2023-04-25T02:05:38;101392.25;;;4.84;100.00
75414;BME280;64758;52.122;5.404;2023-04-25T02:08:06;101390.84;;;4.80;100.00
75414;BME280;64758;52.122;5.404;2023-04-25T02:10:34;101391.97;;;4.77;100.00
75414;BME280;64758;52.122;5.404;2023-04-25T02:13:00;101394.28;;;4.71;100.00
75414;BME280;64758;52.122;5.404;2023-04-25T02:15:27;101394.56;;;4.68;100.00
75414;BME280;64758;52.122;5.404;2023-04-25T02:17:53;101398.47;;;4.73;100.00
75414;BME280;64758;52.122;5.404;2023-04-25T02:20:22;101405.66;;;4.71;100.00
75414;BME280;64758;52.122;5.404;2023-04-25T02:22:49;101397.47;;;4.65;100.00
75414;BME280;64758;52.122;5.404;2023-04-25T02:25:16;101399.41;;;4.63;100.00
75414;BME280;64758;52.122;5.404;2023-04-25T02:27:43;101397.63;;;4.63;100.00
75414;BME280;64758;52.122;5.404;2023-04-25T02:30:10;101399.13;;;4.66;100.00
75414;BME280;64758;52.122;5.404;2023-04-25T02:32:37;101401.91;;;4.64;100.00
75414;BME280;64758;52.122;5.404;2023-04-25T02:35:03;101395.38;;;4.59;100.00
75414;BME280;64758;52.122;5.404;2023-04-25T02:37:31;101398.53;;;4.53;100.00
75414;BME280;64758;52.122;5.404;2023-04-25T02:39:58;101397.84;;;4.51;100.00
75414;BME280;64758;52.122;5.404;2023-04-25T02:42:24;101405.47;;;4.54;100.00
75414;BME280;64758;52.122;5.404;2023-04-25T02:44:51;101415.97;;;4.54;100.00
75414;BME280;64758;52.122;5.404;2023-04-25T02:47:17;101401.44;;;4.50;100.00
75414;BME280;64758;52.122;5.404;2023-04-25T02:49:45;101400.19;;;4.54;100.00
75414;BME280;64758;52.122;5.404;2023-04-25T02:52:12;101399.25;;;4.55;100.00
75414;BME280;64758;52.122;5.404;2023-04-25T02:54:40;101405.47;;;4.54;100.00
75414;BME280;64758;52.122;5.404;2023-04-25T02:57:07;101406.31;;;4.54;100.00
75414;BME280;64758;52.122;5.404;2023-04-25T02:59:34;101403.94;;;4.51;100.00
75414;BME280;64758;52.122;5.404;2023-04-25T03:02:01;101414.06;;;4.56;100.00
75414;BME280;64758;52.122;5.404;2023-04-25T03:04:27;101408.25;;;4.52;100.00
75414;BME280;64758;52.122;5.404;2023-04-25T03:06:54;101402.84;;;4.54;100.00
75414;BME280;64758;52.122;5.404;2023-04-25T03:09:21;101407.41;;;4.52;100.00
75414;BME280;64758;52.122;5.404;2023-04-25T03:11:48;101412.13;;;4.58;100.00
75414;BME280;64758;52.122;5.404;2023-04-25T03:14:14;101406.31;;;4.54;100.00
75414;BME280;64758;52.122;5.404;2023-04-25T03:16:41;101409.75;;;4.55;100.00
75414;BME280;64758;52.122;5.404;2023-04-25T03:19:08;101421.66;;;4.49;100.00
75414;BME280;64758;52.122;5.404;2023-04-25T03:21:35;101417.06;;;4.42;100.00
75414;BME280;64758;52.122;5.404;2023-04-25T03:24:03;101421.50;;;4.41;100.00
75414;BME280;64758;52.122;5.404;2023-04-25T03:26:30;101429.66;;;4.38;100.00
75414;BME280;64758;52.122;5.404;2023-04-25T03:28:57;101429.22;;;4.33;100.00
75414;BME280;64758;52.122;5.404;2023-04-25T03:31:23;101435.28;;;4.34;100.00
75414;BME280;64758;52.122;5.404;2023-04-25T03:33:50;101427.84;;;4.39;100.00
75414;BME280;64758;52.122;5.404;2023-04-25T03:36:17;101422.47;;;4.40;100.00
75414;BME280;64758;52.122;5.404;2023-04-25T03:38:43;101440.59;;;4.43;100.00
75414;BME280;64758;52.122;5.404;2023-04-25T03:41:10;101431.03;;;4.42;100.00
75414;BME280;64758;52.122;5.404;2023-04-25T03:43:36;101430.06;;;4.43;100.00
75414;BME280;64758;52.122;5.404;2023-04-25T03:46:03;101440.88;;;4.50;100.00
75414;BME280;64758;52.122;5.404;2023-04-25T03:48:30;101438.13;;;4.51;100.00
75414;BME280;64758;52.122;5.404;2023-04-25T03:50:56;101448.94;;;4.58;100.00
75414;BME280;64758;52.122;5.404;2023-04-25T03:53:23;101431.22;;;4.60;100.00
75414;BME280;64758;52.122;5.404;2023-04-25T03:55:49;101438.59;;;4.66;100.00
75414;BME280;64758;52.122;5.404;2023-04-25T03:58:16;101440.41;;;4.75;100.00
75414;BME280;64758;52.122;5.404;2023-04-25T04:00:43;101446.09;;;4.80;100.00
75414;BME280;64758;52.122;5.404;2023-04-25T04:03:09;101437.53;;;4.78;100.00
75414;BME280;64758;52.122;5.404;2023-04-25T04:05:37;101450.03;;;4.85;100.00
75414;BME280;64758;52.122;5.404;2023-04-25T04:08:06;101447.38;;;4.85;100.00
75414;BME280;64758;52.122;5.404;2023-04-25T04:10:33;101449.88;;;4.87;100.00
75414;BME280;64758;52.122;5.404;2023-04-25T04:13:00;101463.34;;;4.93;100.00
75414;BME280;64758;52.122;5.404;2023-04-25T04:15:26;101467.47;;;4.96;100.00
75414;BME280;64758;52.122;5.404;2023-04-25T04:17:52;101457.50;;;4.90;100.00
75414;BME280;64758;52.122;5.404;2023-04-25T04:20:20;101456.41;;;4.92;100.00
75414;BME280;64758;52.122;5.404;2023-04-25T04:22:46;101470.38;;;4.93;100.00
75414;BME280;64758;52.122;5.404;2023-04-25T04:25:13;101462.75;;;4.90;99.86
75414;BME280;64758;52.122;5.404;2023-04-25T04:27:39;101455.56;;;4.92;100.00
75414;BME280;64758;52.122;5.404;2023-04-25T04:30:07;101465.81;;;4.95;100.00
75414;BME280;64758;52.122;5.404;2023-04-25T04:32:34;101470.13;;;4.96;99.95
75414;BME280;64758;52.122;5.404;2023-04-25T04:35:04;101471.78;;;4.97;99.47
75414;BME280;64758;52.122;5.404;2023-04-25T04:37:32;101474.28;;;4.98;99.07
75414;BME280;64758;52.122;5.404;2023-04-25T04:39:59;101466.66;;;4.95;98.72
75414;BME280;64758;52.122;5.404;2023-04-25T04:42:32;101469.84;;;4.98;98.78
75414;BME280;64758;52.122;5.404;2023-04-25T04:44:58;101462.91;;;4.97;97.43
75414;BME280;64758;52.122;5.404;2023-04-25T04:47:25;101480.81;;;5.03;97.07
75414;BME280;64758;52.122;5.404;2023-04-25T04:49:52;101481.38;;;5.07;96.85
75414;BME280;64758;52.122;5.404;2023-04-25T04:52:18;101475.41;;;5.05;96.77
75414;BME280;64758;52.122;5.404;2023-04-25T04:54:45;101492.03;;;5.15;96.47
75414;BME280;64758;52.122;5.404;2023-04-25T04:57:12;101487.34;;;5.18;96.81
75414;BME280;64758;52.122;5.404;2023-04-25T04:59:38;101493.16;;;5.22;96.61
75414;BME280;64758;52.122;5.404;2023-04-25T05:02:04;101499.28;;;5.22;96.68
75414;BME280;64758;52.122;5.404;2023-04-25T05:04:31;101501.63;;;5.25;96.40
75414;BME280;64758;52.122;5.404;2023-04-25T05:06:58;101497.59;;;5.21;96.51
75414;BME280;64758;52.122;5.404;2023-04-25T05:09:24;101511.91;;;5.28;96.72
75414;BME280;64758;52.122;5.404;2023-04-25T05:11:52;101510.78;;;5.31;96.66
75414;BME280;64758;52.122;5.404;2023-04-25T05:14:18;101514.09;;;5.33;95.87
75414;BME280;64758;52.122;5.404;2023-04-25T05:16:45;101514.25;;;5.31;95.82
75414;BME280;64758;52.122;5.404;2023-04-25T05:19:11;101512.59;;;5.30;95.83
75414;BME280;64758;52.122;5.404;2023-04-25T05:21:38;101522.84;;;5.33;95.76
75414;BME280;64758;52.122;5.404;2023-04-25T05:24:04;101519.38;;;5.33;95.84
75414;BME280;64758;52.122;5.404;2023-04-25T05:26:31;101522.69;;;5.35;95.93
75414;BME280;64758;52.122;5.404;2023-04-25T05:28:58;101532.16;;;5.37;95.98
75414;BME280;64758;52.122;5.404;2023-04-25T05:31:24;101531.19;;;5.38;95.97
75414;BME280;64758;52.122;5.404;2023-04-25T05:33:51;101531.88;;;5.40;95.74
75414;BME280;64758;52.122;5.404;2023-04-25T05:36:19;101533.41;;;5.43;95.73
75414;BME280;64758;52.122;5.404;2023-04-25T05:38:45;101531.72;;;5.42;95.56
75414;BME280;64758;52.122;5.404;2023-04-25T05:41:12;101527.84;;;5.46;95.47
75414;BME280;64758;52.122;5.404;2023-04-25T05:43:38;101535.09;;;5.53;94.80
75414;BME280;64758;52.122;5.404;2023-04-25T05:46:05;101534.81;;;5.56;94.86
75414;BME280;64758;52.122;5.404;2023-04-25T05:48:32;101547.56;;;5.61;94.32
75414;BME280;64758;52.122;5.404;2023-04-25T05:50:58;101542.59;;;5.67;94.35
75414;BME280;64758;52.122;5.404;2023-04-25T05:53:25;101555.34;;;5.72;94.77
75414;BME280;64758;52.122;5.404;2023-04-25T05:55:51;101553.41;;;5.74;93.84
75414;BME280;64758;52.122;5.404;2023-04-25T05:58:18;101549.28;;;5.81;94.27
75414;BME280;64758;52.122;5.404;2023-04-25T06:00:44;101562.06;;;5.85;94.08
75414;BME280;64758;52.122;5.404;2023-04-25T06:03:11;101559.16;;;5.88;94.14
75414;BME280;64758;52.122;5.404;2023-04-25T06:05:38;101560.38;;;5.94;93.68
75414;BME280;64758;52.122;5.404;2023-04-25T06:08:04;101565.94;;;6.00;93.64
75414;BME280;64758;52.122;5.404;2023-04-25T06:10:31;101564.00;;;6.02;93.18
75414;BME280;64758;52.122;5.404;2023-04-25T06:12:57;101572.31;;;6.07;92.46
75414;BME280;64758;52.122;5.404;2023-04-25T06:15:24;101583.28;;;6.12;91.98
75414;BME280;64758;52.122;5.404;2023-04-25T06:17:54;101582.84;;;6.17;92.28
75414;BME280;64758;52.122;5.404;2023-04-25T06:20:21;101579.53;;;6.24;92.50
75414;BME280;64758;52.122;5.404;2023-04-25T06:22:50;101574.25;;;6.24;91.50
75414;BME280;64758;52.122;5.404;2023-04-25T06:25:20;101584.38;;;6.28;90.92
75414;BME280;64758;52.122;5.404;2023-04-25T06:27:47;101572.16;;;6.28;90.40
75414;BME280;64758;52.122;5.404;2023-04-25T06:30:14;101578.13;;;6.29;89.78
75414;BME280;64758;52.122;5.404;2023-04-25T06:32:41;101579.50;;;6.33;89.62
75414;BME280;64758;52.122;5.404;2023-04-25T06:35:08;101586.69;;;6.41;89.61
75414;BME280;64758;52.122;5.404;2023-04-25T06:37:35;101579.88;;;6.48;89.63
75414;BME280;64758;52.122;5.404;2023-04-25T06:40:01;101589.06;;;6.53;89.34
75414;BME280;64758;52.122;5.404;2023-04-25T06:42:28;101572.25;;;6.54;88.93
75414;BME280;64758;52.122;5.404;2023-04-25T06:44:55;101584.31;;;6.66;88.87
75414;BME280;64758;52.122;5.404;2023-04-25T06:47:22;101577.22;;;6.67;88.83
75414;BME280;64758;52.122;5.404;2023-04-25T06:49:49;101590.81;;;6.72;88.40
75414;BME280;64758;52.122;5.404;2023-04-25T06:52:15;101605.38;;;6.76;87.83
75414;BME280;64758;52.122;5.404;2023-04-25T06:54:44;101598.19;;;6.68;87.11
75414;BME280;64758;52.122;5.404;2023-04-25T06:57:11;101596.94;;;6.72;86.89
75414;BME280;64758;52.122;5.404;2023-04-25T06:59:37;101603.72;;;6.75;85.78
75414;BME280;64758;52.122;5.404;2023-04-25T07:02:04;101607.91;;;6.77;86.67
75414;BME280;64758;52.122;5.404;2023-04-25T07:04:32;101604.13;;;6.80;85.83
75414;BME280;64758;52.122;5.404;2023-04-25T07:06:59;101608.53;;;6.89;85.38
75414;BME280;64758;52.122;5.404;2023-04-25T07:09:27;101614.69;;;6.89;84.61
75414;BME280;64758;52.122;5.404;2023-04-25T07:11:53;101607.63;;;6.80;83.50
75414;BME280;64758;52.122;5.404;2023-04-25T07:14:20;101619.28;;;6.78;84.02
75414;BME280;64758;52.122;5.404;2023-04-25T07:16:46;101631.50;;;6.79;84.10
75414;BME280;64758;52.122;5.404;2023-04-25T07:19:13;101616.91;;;6.75;83.83
75414;BME280;64758;52.122;5.404;2023-04-25T07:21:39;101627.75;;;6.81;83.96
75414;BME280;64758;52.122;5.404;2023-04-25T07:24:06;101622.03;;;6.95;83.81
75414;BME280;64758;52.122;5.404;2023-04-25T07:26:33;101635.69;;;7.18;83.28
75414;BME280;64758;52.122;5.404;2023-04-25T07:28:59;101642.72;;;7.36;83.05
75414;BME280;64758;52.122;5.404;2023-04-25T07:31:26;101635.19;;;7.41;82.28
75414;BME280;64758;52.122;5.404;2023-04-25T07:33:53;101635.28;;;7.49;82.18
75414;BME280;64758;52.122;5.404;2023-04-25T07:36:19;101640.91;;;7.63;81.97
75414;BME280;64758;52.122;5.404;2023-04-25T07:38:47;101642.97;;;7.69;81.58
75414;BME280;64758;52.122;5.404;2023-04-25T07:41:13;101644.84;;;7.77;79.80
75414;BME280;64758;52.122;5.404;2023-04-25T07:43:40;101644.16;;;7.75;79.88
75414;BME280;64758;52.122;5.404;2023-04-25T07:46:06;101655.13;;;7.80;79.68
75414;BME280;64758;52.122;5.404;2023-04-25T07:48:33;101655.38;;;7.86;79.35
75414;BME280;64758;52.122;5.404;2023-04-25T07:51:00;101652.72;;;7.86;79.47
75414;BME280;64758;52.122;5.404;2023-04-25T07:53:26;101653.13;;;7.91;77.59
75414;BME280;64758;52.122;5.404;2023-04-25T07:55:53;101659.41;;;8.08;77.70
75414;BME280;64758;52.122;5.404;2023-04-25T07:58:19;101652.81;;;8.12;76.91
75414;BME280;64758;52.122;5.404;2023-04-25T08:00:49;101663.69;;;8.18;77.15
75414;BME280;64758;52.122;5.404;2023-04-25T08:03:16;101662.28;;;8.14;75.93
75414;BME280;64758;52.122;5.404;2023-04-25T08:05:43;101675.34;;;8.25;74.88
75414;BME280;64758;52.122;5.404;2023-04-25T08:08:09;101668.16;;;8.35;74.21
75414;BME280;64758;52.122;5.404;2023-04-25T08:10:36;101681.75;;;8.40;73.78
75414;BME280;64758;52.122;5.404;2023-04-25T08:13:03;101675.78;;;8.38;75.24
75414;BME280;64758;52.122;5.404;2023-04-25T08:15:29;101682.53;;;8.50;75.29
75414;BME280;64758;52.122;5.404;2023-04-25T08:17:56;101683.66;;;8.65;75.25
75414;BME280;64758;52.122;5.404;2023-04-25T08:20:22;101690.28;;;8.69;75.50
75414;BME280;64758;52.122;5.404;2023-04-25T08:22:49;101691.59;;;8.65;74.53
75414;BME280;64758;52.122;5.404;2023-04-25T08:25:15;101714.44;;;8.31;73.62
75414;BME280;64758;52.122;5.404;2023-04-25T08:27:43;101722.81;;;7.73;73.01
75414;BME280;64758;52.122;5.404;2023-04-25T08:30:09;101715.75;;;7.28;77.73
75414;BME280;64758;52.122;5.404;2023-04-25T08:32:36;101739.41;;;7.20;78.99
75414;BME280;64758;52.122;5.404;2023-04-25T08:35:06;101722.34;;;7.05;78.46
75414;BME280;64758;52.122;5.404;2023-04-25T08:37:33;101730.25;;;7.05;77.40
75414;BME280;64758;52.122;5.404;2023-04-25T08:39:59;101728.88;;;7.10;77.98
75414;BME280;64758;52.122;5.404;2023-04-25T08:42:27;101720.38;;;7.16;78.07
75414;BME280;64758;52.122;5.404;2023-04-25T08:44:55;101731.59;;;7.28;76.92
75414;BME280;64758;52.122;5.404;2023-04-25T08:47:22;101738.09;;;7.43;75.09
75414;BME280;64758;52.122;5.404;2023-04-25T08:49:51;101722.63;;;7.48;75.27
75414;BME280;64758;52.122;5.404;2023-04-25T08:52:23;101733.22;;;7.48;73.56
75414;BME280;64758;52.122;5.404;2023-04-25T08:54:51;101735.00;;;7.56;73.52
75414;BME280;64758;52.122;5.404;2023-04-25T08:57:18;101730.53;;;7.84;74.63
75414;BME280;64758;52.122;5.404;2023-04-25T08:59:45;101739.53;;;8.27;72.65
75414;BME280;64758;52.122;5.404;2023-04-25T09:02:13;101741.44;;;8.52;73.05
75414;BME280;64758;52.122;5.404;2023-04-25T09:04:43;101760.50;;;8.56;70.18
75414;BME280;64758;52.122;5.404;2023-04-25T09:07:11;101764.97;;;8.55;70.76
75414;BME280;64758;52.122;5.404;2023-04-25T09:09:37;101751.44;;;8.58;70.04
75414;BME280;64758;52.122;5.404;2023-04-25T09:12:05;101765.19;;;8.62;69.29
75414;BME280;64758;52.122;5.404;2023-04-25T09:14:31;101762.94;;;8.84;69.63
75414;BME280;64758;52.122;5.404;2023-04-25T09:17:00;101756.13;;;9.24;69.34
75414;BME280;64758;52.122;5.404;2023-04-25T09:22:06;101751.56;;;9.68;70.56
75414;BME280;64758;52.122;5.404;2023-04-25T09:24:41;101763.09;;;9.51;69.83
75414;BME280;64758;52.122;5.404;2023-04-25T09:27:11;101782.31;;;9.27;67.25
75414;BME280;64758;52.122;5.404;2023-04-25T09:29:40;101766.00;;;8.97;68.93
75414;BME280;64758;52.122;5.404;2023-04-25T09:32:21;101776.91;;;8.94;69.59
75414;BME280;64758;52.122;5.404;2023-04-25T09:34:56;101786.22;;;8.98;69.51
75414;BME280;64758;52.122;5.404;2023-04-25T09:37:27;101787.94;;;9.07;68.70
75414;BME280;64758;52.122;5.404;2023-04-25T09:39:59;101779.63;;;9.02;69.53
75414;BME280;64758;52.122;5.404;2023-04-25T09:42:29;101789.53;;;9.00;68.46
75414;BME280;64758;52.122;5.404;2023-04-25T09:44:58;101800.59;;;8.95;70.82
75414;BME280;64758;52.122;5.404;2023-04-25T09:47:26;101804.47;;;8.66;70.44
75414;BME280;64758;52.122;5.404;2023-04-25T09:49:53;101811.69;;;8.29;71.84
75414;BME280;64758;52.122;5.404;2023-04-25T09:52:23;101818.00;;;8.09;74.71
75414;BME280;64758;52.122;5.404;2023-04-25T09:54:52;101831.81;;;8.03;72.58
75414;BME280;64758;52.122;5.404;2023-04-25T09:57:24;101836.59;;;7.90;72.68
75414;BME280;64758;52.122;5.404;2023-04-25T09:59:53;101837.41;;;7.91;72.70
75414;BME280;64758;52.122;5.404;2023-04-25T10:02:25;101836.31;;;7.93;73.03
75414;BME280;64758;52.122;5.404;2023-04-25T10:04:55;101843.09;;;8.05;73.79
75414;BME280;64758;52.122;5.404;2023-04-25T10:07:25;101838.72;;;8.23;72.95
75414;BME280;64758;52.122;5.404;2023-04-25T10:09:58;101825.78;;;8.47;75.65
75414;BME280;64758;52.122;5.404;2023-04-25T10:12:30;101829.16;;;8.84;72.61
75414;BME280;64758;52.122;5.404;2023-04-25T10:15:00;101832.78;;;8.83;73.34
75414;BME280;64758;52.122;5.404;2023-04-25T10:17:27;101836.03;;;8.94;72.12
75414;BME280;64758;52.122;5.404;2023-04-25T10:19:55;101829.91;;;9.11;71.77
75414;BME280;64758;52.122;5.404;2023-04-25T10:22:42;101832.69;;;9.27;68.23
75414;BME280;64758;52.122;5.404;2023-04-25T10:25:11;101819.75;;;9.24;64.32
75414;BME280;64758;52.122;5.404;2023-04-25T10:27:38;101822.22;;;9.43;65.99
75414;BME280;64758;52.122;5.404;2023-04-25T10:30:10;101833.97;;;9.66;67.92
75414;BME280;64758;52.122;5.404;2023-04-25T10:32:42;101830.34;;;9.67;63.07
75414;BME280;64758;52.122;5.404;2023-04-25T10:35:14;101832.63;;;9.62;63.82
75414;BME280;64758;52.122;5.404;2023-04-25T10:38:03;101816.91;;;9.69;64.49
75414;BME280;64758;52.122;5.404;2023-04-25T10:40:32;101808.81;;;9.70;61.63
75414;BME280;64758;52.122;5.404;2023-04-25T10:46:27;101823.66;;;9.89;64.60
75414;BME280;64758;52.122;5.404;2023-04-25T10:48:58;101813.66;;;9.83;65.17
75414;BME280;64758;52.122;5.404;2023-04-25T10:51:32;101814.03;;;9.88;61.14
75414;BME280;64758;52.122;5.404;2023-04-25T10:54:19;101815.75;;;9.97;61.90
75414;BME280;64758;52.122;5.404;2023-04-25T10:56:48;101816.38;;;10.16;61.69
75414;BME280;64758;52.122;5.404;2023-04-25T10:59:16;101824.72;;;10.37;64.17
75414;BME280;64758;52.122;5.404;2023-04-25T11:01:48;101820.25;;;10.29;60.62
75414;BME280;64758;52.122;5.404;2023-04-25T11:04:24;101828.75;;;10.08;62.75
75414;BME280;64758;52.122;5.404;2023-04-25T11:09:39;101827.88;;;9.74;61.49
75414;BME280;64758;52.122;5.404;2023-04-25T11:12:09;101855.91;;;9.51;64.82
75414;BME280;64758;52.122;5.404;2023-04-25T11:14:38;101868.34;;;8.98;68.24
75414;BME280;64758;52.122;5.404;2023-04-25T11:17:06;101859.13;;;8.84;71.16
75414;BME280;64758;52.122;5.404;2023-04-25T11:19:32;101869.50;;;8.78;71.84
75414;BME280;64758;52.122;5.404;2023-04-25T11:22:00;101878.56;;;8.76;73.65
75414;BME280;64758;52.122;5.404;2023-04-25T11:24:31;101872.88;;;8.44;72.46
75414;BME280;64758;52.122;5.404;2023-04-25T11:26:58;101883.13;;;8.29;73.44
75414;BME280;64758;52.122;5.404;2023-04-25T11:29:29;101875.66;;;8.06;74.76
75414;BME280;64758;52.122;5.404;2023-04-25T11:31:56;101882.78;;;7.96;75.33
75414;BME280;64758;52.122;5.404;2023-04-25T11:34:25;101878.34;;;7.96;77.22
75414;BME280;64758;52.122;5.404;2023-04-25T11:36:52;101876.41;;;7.98;76.73
75414;BME280;64758;52.122;5.404;2023-04-25T11:39:19;101881.63;;;8.08;75.30
75414;BME280;64758;52.122;5.404;2023-04-25T11:41:47;101879.97;;;8.07;73.10
75414;BME280;64758;52.122;5.404;2023-04-25T11:44:17;101870.47;;;8.14;71.46
75414;BME280;64758;52.122;5.404;2023-04-25T11:46:44;101889.25;;;8.30;70.65
75414;BME280;64758;52.122;5.404;2023-04-25T11:49:11;101890.69;;;8.51;70.78
75414;BME280;64758;52.122;5.404;2023-04-25T11:51:45;101883.03;;;8.75;68.34
75414;BME280;64758;52.122;5.404;2023-04-25T11:54:13;101883.25;;;8.99;67.51
75414;BME280;64758;52.122;5.404;2023-04-25T11:56:44;101882.66;;;9.05;68.69
75414;BME280;64758;52.122;5.404;2023-04-25T11:59:11;101882.75;;;9.30;67.00
75414;BME280;64758;52.122;5.404;2023-04-25T12:01:40;101879.16;;;9.57;65.98
75414;BME280;64758;52.122;5.404;2023-04-25T12:06:42;101874.97;;;10.22;65.73
75414;BME280;64758;52.122;5.404;2023-04-25T12:09:11;101865.78;;;10.42;63.27
75414;BME280;64758;52.122;5.404;2023-04-25T12:11:43;101864.03;;;10.25;63.59
75414;BME280;64758;52.122;5.404;2023-04-25T12:14:10;101879.84;;;10.02;64.59
75414;BME280;64758;52.122;5.404;2023-04-25T12:16:44;101885.00;;;9.86;64.97
75414;BME280;64758;52.122;5.404;2023-04-25T12:19:15;101883.59;;;9.74;64.36
75414;BME280;64758;52.122;5.404;2023-04-25T12:21:43;101889.56;;;9.76;60.59
75414;BME280;64758;52.122;5.404;2023-04-25T12:24:24;101895.44;;;9.62;61.49
75414;BME280;64758;52.122;5.404;2023-04-25T12:26:59;101910.44;;;9.71;61.56
75414;BME280;64758;52.122;5.404;2023-04-25T12:29:28;101900.44;;;9.65;61.33
75414;BME280;64758;52.122;5.404;2023-04-25T12:32:03;101896.41;;;9.61;60.53
75414;BME280;64758;52.122;5.404;2023-04-25T12:34:32;101905.09;;;9.45;61.15
75414;BME280;64758;52.122;5.404;2023-04-25T12:36:58;101898.56;;;9.40;63.21
75414;BME280;64758;52.122;5.404;2023-04-25T12:39:25;101909.06;;;9.67;63.33
75414;BME280;64758;52.122;5.404;2023-04-25T12:41:52;101908.81;;;9.95;60.59
75414;BME280;64758;52.122;5.404;2023-04-25T12:44:20;101901.81;;;9.94;58.98
75414;BME280;64758;52.122;5.404;2023-04-25T12:46:48;101894.22;;;9.99;60.11
75414;BME280;64758;52.122;5.404;2023-04-25T12:49:14;101898.09;;;10.05;59.24
75414;BME280;64758;52.122;5.404;2023-04-25T12:51:44;101902.59;;;9.87;60.46
75414;BME280;64758;52.122;5.404;2023-04-25T12:54:11;101904.06;;;10.07;60.43
75414;BME280;64758;52.122;5.404;2023-04-25T12:56:38;101894.94;;;10.34;58.86
75414;BME280;64758;52.122;5.404;2023-04-25T12:59:04;101877.16;;;10.68;60.96
75414;BME280;64758;52.122;5.404;2023-04-25T13:01:31;101884.22;;;11.09;59.37
75414;BME280;64758;52.122;5.404;2023-04-25T13:04:01;101882.28;;;11.35;57.19
75414;BME280;64758;52.122;5.404;2023-04-25T13:06:28;101887.25;;;11.22;55.10
75414;BME280;64758;52.122;5.404;2023-04-25T13:08:56;101875.41;;;11.01;57.36